createdAt,value
2022-08-05T00:01:00.962Z,4.80
2022-08-05T00:03:49.612Z,4.80
2022-08-05T00:06:32.268Z,4.90
2022-08-05T00:09:12.724Z,5.20
2022-08-05T00:11:48.325Z,4.80
2022-08-05T00:14:21.874Z,5.00
2022-08-05T00:17:01.885Z,5.10
2022-08-05T00:20:01.923Z,5.00
2022-08-05T00:22:27.419Z,5.10
2022-08-05T00:24:59.519Z,5.20
2022-08-05T00:27:36.113Z,5.30
2022-08-05T00:30:11.393Z,5.20
2022-08-05T00:32:43.785Z,5.30
2022-08-05T00:35:20.329Z,5.10
2022-08-05T00:37:54.130Z,5.60
2022-08-05T00:40:29.392Z,5.90
2022-08-05T00:43:07.430Z,6.20
2022-08-05T00:45:43.955Z,5.60
2022-08-05T00:48:31.287Z,5.10
2022-08-05T00:54:02.362Z,5.40
2022-08-05T00:56:35.343Z,5.50
2022-08-05T00:59:08.823Z,5.80
2022-08-05T01:01:48.392Z,6.10
2022-08-05T01:04:30.079Z,5.20
2022-08-05T01:07:05.150Z,5.60
2022-08-05T01:09:37.676Z,5.20
2022-08-05T01:12:18.826Z,5.10
2022-08-05T01:14:59.011Z,5.60
2022-08-05T01:17:44.001Z,5.30
2022-08-05T01:20:27.583Z,5.50
2022-08-05T01:23:23.269Z,5.40
2022-08-05T01:26:08.883Z,5.20
2022-08-05T01:28:48.035Z,5.10
2022-08-05T01:31:29.185Z,5.10
2022-08-05T01:34:05.892Z,5.10
2022-08-05T01:36:47.000Z,5.20
2022-08-05T01:39:46.620Z,5.40
2022-08-05T01:42:17.799Z,4.70
2022-08-05T01:44:54.104Z,5.20
2022-08-05T01:50:16.094Z,5.40
2022-08-05T01:52:51.695Z,5.10
2022-08-05T01:55:28.986Z,5.20
2022-08-05T01:58:29.946Z,4.90
2022-08-05T02:01:01.240Z,5.10
2022-08-05T02:03:37.949Z,5.40
2022-08-05T02:06:37.252Z,4.80
2022-08-05T02:09:06.502Z,5.20
2022-08-05T02:11:52.631Z,4.90
2022-08-05T02:14:32.248Z,5.10
2022-08-05T02:17:17.020Z,5.00
2022-08-05T02:20:12.553Z,5.00
2022-08-05T02:22:48.235Z,5.00
2022-08-05T02:25:26.144Z,4.90
2022-08-05T02:28:08.664Z,5.20
2022-08-05T02:30:54.146Z,5.60
2022-08-05T02:33:36.242Z,4.90
2022-08-05T02:36:16.069Z,5.30
2022-08-05T02:38:53.387Z,4.90
2022-08-05T02:41:28.604Z,5.10
2022-08-05T02:44:13.347Z,5.80
2022-08-05T02:46:58.387Z,5.00
2022-08-05T02:49:37.667Z,5.80
2022-08-05T02:52:29.832Z,5.80
2022-08-05T02:55:05.524Z,5.80
2022-08-05T02:58:09.912Z,5.80
2022-08-05T03:00:38.182Z,5.80
2022-08-05T03:03:12.251Z,5.70
2022-08-05T03:06:55.042Z,6.20
2022-08-05T03:08:38.649Z,5.90
2022-08-05T03:11:57.059Z,6.30
2022-08-05T03:14:15.180Z,6.20
2022-08-05T03:16:48.250Z,6.30
2022-08-05T03:19:34.661Z,6.90
2022-08-05T03:22:16.467Z,6.60
2022-08-05T03:24:52.684Z,7.10
2022-08-05T03:27:39.207Z,6.90
2022-08-05T03:30:18.461Z,7.00
2022-08-05T03:32:53.186Z,7.00
2022-08-05T03:35:25.916Z,7.80
2022-08-05T03:38:00.133Z,7.50
2022-08-05T03:40:32.814Z,7.60
2022-08-05T03:43:58.603Z,8.20
2022-08-05T03:45:58.799Z,7.70
2022-08-05T03:48:35.387Z,8.50
2022-08-05T03:52:36.628Z,8.10
2022-08-05T03:55:52.519Z,7.70
2022-08-05T03:57:16.389Z,8.10
2022-08-05T03:59:55.622Z,8.20
2022-08-05T04:02:38.438Z,8.60
2022-08-05T04:05:18.924Z,8.60
2022-08-05T04:07:57.968Z,8.60
2022-08-05T04:10:37.928Z,9.10
2022-08-05T04:13:10.628Z,8.60
2022-08-05T04:16:02.774Z,8.10
2022-08-05T04:18:35.502Z,8.70
2022-08-05T04:21:11.132Z,7.80
2022-08-05T04:24:00.230Z,8.40
2022-08-05T04:26:36.186Z,8.00
2022-08-05T04:29:08.500Z,8.60
2022-08-05T04:31:41.363Z,8.90
2022-08-05T04:34:31.320Z,9.20
2022-08-05T04:37:05.741Z,8.50
2022-08-05T04:39:37.819Z,8.40
2022-08-05T04:42:12.073Z,8.90
2022-08-05T04:44:44.195Z,8.30
2022-08-05T04:47:20.023Z,8.60
2022-08-05T04:50:02.968Z,9.00
2022-08-05T04:52:43.935Z,8.50
2022-08-05T04:55:17.240Z,8.50
2022-08-05T04:58:06.597Z,8.70
2022-08-05T05:00:45.142Z,8.70
2022-08-05T05:03:22.913Z,8.60
2022-08-05T05:06:36.668Z,8.50
2022-08-05T05:08:49.942Z,7.90
2022-08-05T05:11:22.800Z,7.80
2022-08-05T05:14:16.242Z,7.30
2022-08-05T05:16:48.504Z,7.80
2022-08-05T05:19:26.526Z,7.40
2022-08-05T05:22:00.016Z,7.40
2022-08-05T05:24:58.597Z,6.90
2022-08-05T05:27:44.750Z,6.70
2022-08-05T05:30:30.410Z,6.40
2022-08-05T05:33:15.977Z,6.40
2022-08-05T05:35:50.272Z,6.30
2022-08-05T05:38:27.500Z,6.00
2022-08-05T05:41:00.240Z,6.00
2022-08-05T05:43:58.237Z,6.30
2022-08-05T05:46:24.473Z,6.20
2022-08-05T05:48:57.501Z,6.00
2022-08-05T05:51:30.003Z,5.80
2022-08-05T05:54:22.438Z,5.10
2022-08-05T05:57:19.070Z,5.50
2022-08-05T05:59:51.396Z,5.80
2022-08-05T06:02:37.476Z,4.80
2022-08-05T06:05:16.631Z,5.00
2022-08-05T06:07:57.812Z,4.70
2022-08-05T06:10:36.717Z,4.80
2022-08-05T06:13:09.884Z,4.90
2022-08-05T06:16:28.741Z,4.80
2022-08-05T06:18:36.510Z,4.20
2022-08-05T06:21:18.494Z,4.30
2022-08-05T06:23:51.256Z,3.90
2022-08-05T06:26:25.065Z,4.30
2022-08-05T06:28:57.346Z,4.10
2022-08-05T06:31:30.564Z,4.40
2022-08-05T06:34:08.905Z,4.20
2022-08-05T06:36:57.551Z,4.10
2022-08-05T06:39:31.310Z,4.00
2022-08-05T06:42:04.971Z,3.60
2022-08-05T06:44:37.030Z,4.10
2022-08-05T06:48:11.505Z,3.70
2022-08-05T06:50:05.393Z,3.20
2022-08-05T06:52:40.453Z,3.20
2022-08-05T06:55:13.291Z,3.40
2022-08-05T06:57:57.282Z,3.20
2022-08-05T07:00:35.845Z,3.00
2022-08-05T07:03:13.414Z,3.50
2022-08-05T07:05:48.861Z,3.30
2022-08-05T07:08:23.443Z,3.40
2022-08-05T07:10:57.251Z,3.00
2022-08-05T07:13:59.405Z,3.20
2022-08-05T07:17:56.010Z,2.70
2022-08-05T07:20:31.226Z,3.20
2022-08-05T07:22:35.133Z,3.20
2022-08-05T07:25:22.779Z,2.90
2022-08-05T07:28:04.206Z,3.00
2022-08-05T07:30:40.835Z,2.40
2022-08-05T07:33:17.112Z,3.10
2022-08-05T07:36:02.515Z,2.80
2022-08-05T07:38:44.204Z,3.30
2022-08-05T07:42:12.941Z,2.80
2022-08-05T07:44:19.304Z,2.80
2022-08-05T07:46:51.859Z,3.10
2022-08-05T07:49:23.957Z,2.40
2022-08-05T07:51:56.233Z,2.80
2022-08-05T07:54:30.207Z,2.90
2022-08-05T07:57:23.666Z,3.00
2022-08-05T07:59:57.105Z,3.00
2022-08-05T08:02:31.413Z,2.70
2022-08-05T08:05:22.546Z,2.60
2022-08-05T08:07:59.655Z,3.00
2022-08-05T08:10:32.852Z,2.80
2022-08-05T08:13:05.249Z,2.80
2022-08-05T08:16:35.469Z,2.70
2022-08-05T08:18:30.060Z,2.80
2022-08-05T08:21:04.041Z,2.70
2022-08-05T08:24:03.101Z,2.70
2022-08-05T08:26:34.634Z,2.70
2022-08-05T08:30:03.126Z,2.50
2022-08-05T08:31:58.791Z,2.90
2022-08-05T08:34:33.306Z,2.60
2022-08-05T08:37:06.277Z,2.70
2022-08-05T08:39:49.290Z,2.70
2022-08-05T08:42:34.053Z,2.70
2022-08-05T08:45:26.738Z,3.20
2022-08-05T08:48:10.634Z,2.80
2022-08-05T08:51:22.572Z,3.10
2022-08-05T08:53:47.746Z,2.40
2022-08-05T08:56:22.174Z,2.80
2022-08-05T08:58:54.362Z,2.60
2022-08-05T09:01:26.627Z,2.90
2022-08-05T09:04:00.488Z,2.70
2022-08-05T09:06:36.395Z,2.20
2022-08-05T09:09:08.909Z,3.00
2022-08-05T09:11:52.037Z,2.40
2022-08-05T09:14:58.275Z,3.00
2022-08-05T09:17:41.393Z,3.10
2022-08-05T09:20:21.059Z,2.60
2022-08-05T09:23:18.677Z,2.70
2022-08-05T09:26:01.420Z,3.10
2022-08-05T09:28:37.665Z,2.80
2022-08-05T09:31:23.318Z,2.90
2022-08-05T09:34:07.124Z,2.50
2022-08-05T09:36:54.167Z,2.80
2022-08-05T09:39:41.550Z,2.20
2022-08-05T09:42:24.343Z,2.50
2022-08-05T09:46:05.207Z,2.50
2022-08-05T09:48:01.801Z,2.70
2022-08-05T09:50:43.839Z,2.40
2022-08-05T09:53:26.003Z,2.50
2022-08-05T09:56:13.108Z,2.60
2022-08-05T09:58:59.248Z,2.50
2022-08-05T10:01:33.765Z,2.60
2022-08-05T10:04:10.591Z,2.90
2022-08-05T10:06:59.014Z,2.70
2022-08-05T10:09:45.337Z,2.80
2022-08-05T10:12:18.925Z,2.30
2022-08-05T10:15:20.196Z,2.30
2022-08-05T10:18:16.734Z,2.70
2022-08-05T10:20:52.709Z,2.40
2022-08-05T10:23:55.517Z,2.50
2022-08-05T10:26:24.430Z,2.30
2022-08-05T10:29:05.253Z,2.50
2022-08-05T10:32:55.767Z,2.90
2022-08-05T10:34:32.385Z,2.60
2022-08-05T10:37:04.663Z,2.70
2022-08-05T10:40:04.059Z,2.70
2022-08-05T10:42:38.586Z,2.90
2022-08-05T10:45:23.319Z,2.40
2022-08-05T10:51:22.074Z,3.20
2022-08-05T10:54:02.060Z,2.50
2022-08-05T10:56:56.069Z,3.00
2022-08-05T11:00:02.765Z,2.90
2022-08-05T11:02:38.044Z,3.00
2022-08-05T11:05:13.600Z,3.10
2022-08-05T11:08:21.720Z,2.80
2022-08-05T11:11:00.981Z,3.20
2022-08-05T11:13:57.692Z,3.30
2022-08-05T11:16:33.688Z,3.00
2022-08-05T11:20:17.105Z,3.40
2022-08-05T11:22:49.982Z,2.90
2022-08-05T11:26:04.251Z,2.90
2022-08-05T11:28:49.868Z,2.90
2022-08-05T11:31:57.341Z,3.30
2022-08-05T11:34:50.781Z,3.10
2022-08-05T11:38:29.585Z,2.90
2022-08-05T11:41:35.621Z,3.30
2022-08-05T11:44:04.819Z,3.10
2022-08-05T11:47:09.970Z,3.00
2022-08-05T11:49:34.621Z,3.30
2022-08-05T11:52:08.661Z,3.30
2022-08-05T11:54:48.505Z,3.40
2022-08-05T11:58:08.314Z,3.30
2022-08-05T12:00:31.251Z,3.80
2022-08-05T12:03:28.570Z,3.30
2022-08-05T12:06:10.132Z,3.30
2022-08-05T12:08:50.020Z,3.30
2022-08-05T12:11:28.373Z,3.50
2022-08-05T12:14:12.913Z,3.60
2022-08-05T12:16:48.784Z,3.60
2022-08-05T12:20:25.800Z,3.80
2022-08-05T12:22:17.974Z,3.80
2022-08-05T12:24:56.115Z,3.30
2022-08-05T12:27:33.064Z,4.00
2022-08-05T12:30:09.013Z,3.60
2022-08-05T12:32:51.173Z,3.70
2022-08-05T12:35:36.984Z,3.50
2022-08-05T12:38:12.642Z,3.80
2022-08-05T12:40:48.084Z,3.90
2022-08-05T12:43:24.327Z,4.50
2022-08-05T12:46:04.957Z,4.20
2022-08-05T12:48:42.543Z,4.00
2022-08-05T12:51:21.706Z,4.20
2022-08-05T12:54:14.678Z,3.70
2022-08-05T12:56:52.851Z,4.20
2022-08-05T12:59:27.446Z,3.70
2022-08-05T13:02:27.380Z,3.80
2022-08-05T13:05:07.498Z,3.80
2022-08-05T13:08:01.002Z,4.10
2022-08-05T13:10:34.399Z,3.80
2022-08-05T13:13:09.410Z,3.80
2022-08-05T13:16:02.073Z,4.10
2022-08-05T13:18:51.666Z,4.30
2022-08-05T13:21:24.003Z,4.30
2022-08-05T13:24:01.080Z,3.80
2022-08-05T13:26:36.695Z,4.00
2022-08-05T13:29:08.832Z,3.30
2022-08-05T13:32:04.047Z,3.80
2022-08-05T13:34:34.147Z,3.80
2022-08-05T13:37:10.030Z,3.70
2022-08-05T13:40:15.958Z,3.80
2022-08-05T13:42:34.349Z,3.80
2022-08-05T13:45:08.086Z,3.70
2022-08-05T13:48:09.782Z,3.90
2022-08-05T13:50:34.441Z,3.50
2022-08-05T13:53:08.928Z,3.90
2022-08-05T13:55:50.255Z,3.80
2022-08-05T13:58:32.403Z,3.90
2022-08-05T14:01:05.312Z,3.80
2022-08-05T14:03:39.350Z,3.70
2022-08-05T14:06:26.090Z,3.70
2022-08-05T14:08:59.508Z,3.70
2022-08-05T14:11:31.751Z,3.50
2022-08-05T14:14:25.449Z,3.90
2022-08-05T14:16:59.013Z,3.80
2022-08-05T14:19:32.895Z,3.30
2022-08-05T14:22:25.364Z,3.60
2022-08-05T14:25:02.856Z,4.00
2022-08-05T14:27:38.621Z,3.80
2022-08-05T14:30:21.344Z,3.90
2022-08-05T14:32:53.488Z,3.80
2022-08-05T14:35:50.477Z,3.90
2022-08-05T14:38:32.242Z,3.90
2022-08-05T14:41:08.295Z,3.30
2022-08-05T14:43:59.058Z,3.80
2022-08-05T14:46:34.973Z,3.70
2022-08-05T14:49:08.418Z,3.80
2022-08-05T14:51:43.209Z,3.90
2022-08-05T14:54:28.066Z,4.00
2022-08-05T14:57:05.146Z,4.00
2022-08-05T14:59:41.880Z,4.00
2022-08-05T15:02:15.936Z,3.80
2022-08-05T15:04:49.907Z,4.10
2022-08-05T15:08:08.913Z,4.00
2022-08-05T15:10:14.411Z,4.00
2022-08-05T15:13:00.596Z,4.10
2022-08-05T15:15:54.960Z,4.10
2022-08-05T15:18:28.086Z,3.90
2022-08-05T15:21:07.443Z,4.20
2022-08-05T15:23:40.239Z,4.00
2022-08-05T15:26:12.470Z,4.50
2022-08-05T15:28:44.641Z,4.20
2022-08-05T15:31:24.192Z,4.50
2022-08-05T15:34:31.497Z,4.50
2022-08-05T15:37:03.557Z,4.30
2022-08-05T15:41:00.571Z,4.60
2022-08-05T15:42:54.051Z,4.30
2022-08-05T15:45:38.216Z,4.70
2022-08-05T15:48:14.335Z,4.60
2022-08-05T15:50:49.144Z,4.20
2022-08-05T15:53:23.091Z,4.40
2022-08-05T15:56:05.582Z,4.40
2022-08-05T15:58:39.625Z,4.00
2022-08-05T16:01:17.427Z,4.50
2022-08-05T16:03:51.076Z,4.60
2022-08-05T16:06:24.261Z,4.60
2022-08-05T16:08:56.278Z,4.50
2022-08-05T16:11:39.958Z,4.40
2022-08-05T16:14:17.201Z,4.70
2022-08-05T16:16:50.814Z,4.70
2022-08-05T16:20:03.754Z,5.00
2022-08-05T16:22:15.649Z,5.50
2022-08-05T16:24:51.837Z,4.80
2022-08-05T16:27:46.753Z,5.30
2022-08-05T16:30:26.496Z,4.60
2022-08-05T16:33:01.569Z,4.60
2022-08-05T16:35:42.210Z,5.10
2022-08-05T16:38:25.610Z,4.90
2022-08-05T16:42:12.301Z,4.10
2022-08-05T16:43:56.095Z,4.80
2022-08-05T16:46:28.678Z,6.00
2022-08-05T16:49:00.702Z,5.00
2022-08-05T16:51:42.834Z,5.00
2022-08-05T16:54:28.937Z,4.80
2022-08-05T16:57:04.552Z,4.90
2022-08-05T17:00:01.750Z,5.00
2022-08-05T17:02:38.226Z,4.90
2022-08-05T17:05:11.999Z,5.30
2022-08-05T17:07:53.090Z,5.10
2022-08-05T17:10:30.440Z,4.60
2022-08-05T17:13:02.834Z,5.00
2022-08-05T17:15:48.949Z,5.20
2022-08-05T17:18:23.246Z,5.50
2022-08-05T17:20:55.781Z,5.50
2022-08-05T17:24:03.383Z,4.80
2022-08-05T17:26:20.467Z,5.10
2022-08-05T17:28:55.740Z,5.30
2022-08-05T17:31:41.267Z,5.00
2022-08-05T17:34:20.179Z,5.40
2022-08-05T17:37:04.472Z,5.20
2022-08-05T17:39:37.217Z,5.00
2022-08-05T17:42:17.919Z,5.50
2022-08-05T17:44:52.848Z,4.90
2022-08-05T17:47:25.219Z,5.30
2022-08-05T17:50:03.870Z,5.70
2022-08-05T17:52:52.600Z,5.20
2022-08-05T17:55:37.638Z,5.20
2022-08-05T17:58:14.371Z,5.40
2022-08-05T18:00:50.719Z,5.90
2022-08-05T18:03:56.259Z,5.90
2022-08-05T18:06:17.230Z,5.50
2022-08-05T18:08:52.485Z,5.20
2022-08-05T18:11:32.515Z,5.40
2022-08-05T18:14:07.489Z,5.40
2022-08-05T18:16:51.853Z,5.80
2022-08-05T18:19:25.986Z,5.50
2022-08-05T18:22:07.862Z,5.40
2022-08-05T18:24:43.579Z,6.00
2022-08-05T18:27:18.776Z,5.50
2022-08-05T18:29:54.590Z,5.50
2022-08-05T18:32:28.199Z,5.60
2022-08-05T18:35:02.013Z,5.70
2022-08-05T18:37:40.384Z,6.00
2022-08-05T18:43:09.191Z,5.60
2022-08-05T18:45:49.001Z,5.90
2022-08-05T18:48:31.252Z,5.70
2022-08-05T18:52:04.446Z,5.70
2022-08-05T18:54:14.763Z,5.70
2022-08-05T18:56:51.028Z,6.10
2022-08-05T18:59:50.672Z,5.70
2022-08-05T19:02:27.116Z,6.10
2022-08-05T19:06:06.312Z,6.00
2022-08-05T19:07:57.012Z,6.20
2022-08-05T19:10:31.593Z,6.00
2022-08-05T19:13:03.893Z,5.90
2022-08-05T19:15:59.407Z,6.00
2022-08-05T19:18:29.939Z,6.20
2022-08-05T19:21:03.437Z,5.60
2022-08-05T19:24:07.125Z,6.20
2022-08-05T19:26:30.906Z,6.10
2022-08-05T19:29:03.081Z,5.50
2022-08-05T19:31:50.640Z,6.30
2022-08-05T19:34:24.073Z,6.00
2022-08-05T19:36:56.066Z,6.00
2022-08-05T19:39:30.109Z,6.00
2022-08-05T19:42:07.679Z,6.50
2022-08-05T19:44:45.212Z,5.80
2022-08-05T19:47:19.121Z,5.80
2022-08-05T19:49:51.489Z,6.50
2022-08-05T19:52:31.377Z,5.90
2022-08-05T19:55:06.896Z,5.90
2022-08-05T19:57:49.217Z,6.60
2022-08-05T20:00:33.370Z,6.10
2022-08-05T20:03:09.079Z,6.30
2022-08-05T20:05:50.167Z,6.10
2022-08-05T20:08:24.548Z,5.90
2022-08-05T20:10:58.032Z,6.50
2022-08-05T20:13:58.262Z,6.70
2022-08-05T20:16:24.877Z,6.60
2022-08-05T20:18:57.079Z,6.50
2022-08-05T20:21:29.224Z,6.50
2022-08-05T20:24:03.056Z,6.50
2022-08-05T20:26:35.224Z,6.70
2022-08-05T20:29:07.389Z,6.90
2022-08-05T20:31:59.755Z,7.00
2022-08-05T20:34:32.102Z,6.60
2022-08-05T20:37:04.317Z,7.10
2022-08-05T20:39:51.680Z,7.40
2022-08-05T20:42:24.147Z,7.90
2022-08-05T20:45:00.695Z,7.90
2022-08-05T20:47:35.233Z,10.70
2022-08-05T20:50:13.510Z,10.10
2022-08-05T20:52:47.720Z,10.30
2022-08-05T20:56:07.965Z,10.20
2022-08-05T20:58:15.314Z,9.90
2022-08-05T21:00:52.045Z,10.30
2022-08-05T21:03:26.809Z,9.90
2022-08-05T21:05:59.056Z,9.20
2022-08-05T21:08:41.950Z,9.00
2022-08-05T21:12:09.558Z,9.50
2022-08-05T21:14:08.619Z,9.20
2022-08-05T21:16:44.353Z,9.50
